MV Inez Andreas — WDB7752 — position and weather

sailwx.info

Track history (hours):
 
Tides and Currents Weather Stations Pressure Air Temp Water Temp Dewpoint Dewpoint Depression Visibility Wind Speed Wind Dir Waves Ship Positions

MV Inez Andreas

Owner: American River Transportation Co., Saint Louis, MO. More information available from US FCC via Universal Licensing System and Coast Guard Vessel Documentation Center.

Last reported at 2017-Dec-10 09:13 UTC. Time now 2017-Dec-14 16:52 UTC.
Position N 32°44' W 091°04'.

Length 66 m; draft 3.2 m.

Type: Towing. MMSI: 366947510.

Date/timePositionNaut miles runAvg speedWind from/ knotsBaromVisibWave heightAir tempDewpointWater temp
2017-Dec-10 09:13N 32°44' W 091°04'4 1.5
2017-Dec-10 06:24N 32°40' W 091°07'2 3.9
2017-Dec-10 05:56N 32°39' W 091°09'2 3.5
2017-Dec-10 05:30N 32°38' W 091°09'2 3.1
2017-Dec-10 05:00N 32°36' W 091°09'0 0.0
2017-Dec-10 04:31N 32°36' W 091°09'2 3.1
2017-Dec-10 04:01N 32°35' W 091°08'2 4.4
2017-Dec-10 03:30N 32°34' W 091°06'2 3.9
2017-Dec-10 02:53N 32°31' W 091°06'2 5.0
2017-Dec-10 02:31N 32°30' W 091°07'2 4.7
2017-Dec-10 02:00N 32°28' W 091°06'2 3.7
2017-Dec-10 01:31N 32°27' W 091°04'2 4.6
2017-Dec-10 01:01N 32°26' W 091°01'2 4.0
2017-Dec-10 00:31N 32°24' W 090°59'2 4.1
2017-Dec-10 00:00N 32°22' W 091°00'2 4.1
2017-Dec-09 23:30N 32°21' W 090°58'2 4.8
2017-Dec-09 23:00N 32°21' W 090°56'2 3.9
2017-Dec-09 22:31N 32°19' W 090°54'2 4.3
2017-Dec-09 22:01N 32°18' W 090°56'0 0.1
2017-Dec-09 21:31N 32°18' W 090°56'1 1.5
2017-Dec-09 21:01N 32°17' W 090°56'2 4.5
2017-Dec-09 20:30N 32°16' W 090°58'2 3.9
2017-Dec-09 20:00N 32°14' W 090°59'2 4.6
2017-Dec-09 19:31N 32°12' W 090°60'2 4.5
2017-Dec-09 18:59N 32°09' W 091°00'2 4.3
2017-Dec-09 18:30N 32°07' W 091°01'3 4.4
2017-Dec-09 17:48N 32°08' W 091°05'1 4.6
2017-Dec-09 17:30N 32°08' W 091°06'19 3.6
2017-Dec-09 12:21N 31°51' W 091°17'  
Track history (hours):
 
Tides and Currents Weather Stations Pressure Air Temp Water Temp Dewpoint Dewpoint Depression Visibility Wind Speed Wind Dir Waves Ship Positions

MV Inez Andreas

Owner: American River Transportation Co., Saint Louis, MO. More information available from US FCC via Universal Licensing System and Coast Guard Vessel Documentation Center.

Last reported at 2017-Dec-10 09:13 UTC. Time now 2017-Dec-14 16:52 UTC.
Position N 32°44' W 091°04'.

Length 66 m; draft 3.2 m.

Type: Towing. MMSI: 366947510.

Date/timePositionNaut miles runAvg speedWind from/ knotsBaromVisibWave heightAir tempDewpointWater temp
2017-Dec-10 09:13N 32°44' W 091°04'4 1.5
2017-Dec-10 06:24N 32°40' W 091°07'2 3.9
2017-Dec-10 05:56N 32°39' W 091°09'2 3.5
2017-Dec-10 05:30N 32°38' W 091°09'2 3.1
2017-Dec-10 05:00N 32°36' W 091°09'0 0.0
2017-Dec-10 04:31N 32°36' W 091°09'2 3.1
2017-Dec-10 04:01N 32°35' W 091°08'2 4.4
2017-Dec-10 03:30N 32°34' W 091°06'2 3.9
2017-Dec-10 02:53N 32°31' W 091°06'2 5.0
2017-Dec-10 02:31N 32°30' W 091°07'2 4.7
2017-Dec-10 02:00N 32°28' W 091°06'2 3.7
2017-Dec-10 01:31N 32°27' W 091°04'2 4.6
2017-Dec-10 01:01N 32°26' W 091°01'2 4.0
2017-Dec-10 00:31N 32°24' W 090°59'2 4.1
2017-Dec-10 00:00N 32°22' W 091°00'2 4.1
2017-Dec-09 23:30N 32°21' W 090°58'2 4.8
2017-Dec-09 23:00N 32°21' W 090°56'2 3.9
2017-Dec-09 22:31N 32°19' W 090°54'2 4.3
2017-Dec-09 22:01N 32°18' W 090°56'0 0.1
2017-Dec-09 21:31N 32°18' W 090°56'1 1.5
2017-Dec-09 21:01N 32°17' W 090°56'2 4.5
2017-Dec-09 20:30N 32°16' W 090°58'2 3.9
2017-Dec-09 20:00N 32°14' W 090°59'2 4.6
2017-Dec-09 19:31N 32°12' W 090°60'2 4.5
2017-Dec-09 18:59N 32°09' W 091°00'2 4.3
2017-Dec-09 18:30N 32°07' W 091°01'3 4.4
2017-Dec-09 17:48N 32°08' W 091°05'1 4.6
2017-Dec-09 17:30N 32°08' W 091°06'19 3.6
2017-Dec-09 12:21N 31°51' W 091°17'  

Dump ship's entire track history